الصفحة الرئيسية
METAR-TAF:

METAR-TAF

مطار :

كولورادو سيتي, أريزونا, الولايات المتحدة

دائرة عرض: 36-57-36N, خط طول: 113-00-50W, ارتفاع: 1486 متر

مراقبة الطقس الحالي

تاريخ ووقت الإصدار 24 دقيقة قبل الساعة 09:35UTC
ريح 12 عقدة من الشمال الشرقي
درجة الحرارة 18°درجة مئوية
الرطوبة 18%
ضغط 1027 hPa
الرؤية: 6.4 كم
سماء صافية
العجاج

METAR: KAZC 290935Z AUTO 05012KT 4SM HZ CLR 18/M07 A3033 RMK AO2

زمن: 02:59 (09:59 UTC)


TAF: مفقودة

أرصاد الطقس والتوقعات من أكثر من 4000 مطار (تقارير الطقس للمطار METAR والتنبؤ بالطقس بالمطارTAF).

المحطات المتاحة هي النقط الصفراء والحمراء على الخريطة.

حرك المؤشر فوق النقطة لمعرفة اسم المحطة.

ثم انقر لمعرفة أرصاد وتوقعات الطقس.

لتغيير الخارطة: اضغط على الأزرار الخضراء مع رمز الصليب الأسود للتكبير. على الزر الأخضر مع شرطة للتصغير، أو على الأسهم الخضراء للخرائط المجاورة.


METAR-TAF: